Terminal Aerodrome Forecast
Issued by NWS

Home | Current Version | Previous Version | Text Only | Print | Product List | Glossary On
Versions: 1 2 3 4 5 6 7 8 9 10 11 12 13 14 15 16 17 18 19 20 21 22 23 24 25
000
FTUS43 KABR 300500
TAFPIR
TAF
KPIR 300520Z 3006/0106 10015KT P6SM SCT070 SCT120
     FM300800 11023G30KT P6SM OVC015
     FM301700 16025G35KT P6SM VCSH OVC035
     FM302200 22018G28KT P6SM -SHRA OVC050=

USA.gov is the U.S. government's official web portal to all federal, state and local government web resources and services.